sensor_id;sensor_type;location;lat;lon;timestamp;temperature;humidity
20598;DHT22;10457;48.770;11.446;2022-08-20T00:03:48;16.90;99.90
20598;DHT22;10457;48.770;11.446;2022-08-20T00:09:09;16.80;99.90
20598;DHT22;10457;48.770;11.446;2022-08-20T00:14:32;16.80;99.90
20598;DHT22;10457;48.770;11.446;2022-08-20T00:19:54;16.90;99.90
20598;DHT22;10457;48.770;11.446;2022-08-20T00:25:16;16.90;99.90
20598;DHT22;10457;48.770;11.446;2022-08-20T00:30:42;16.90;99.90
20598;DHT22;10457;48.770;11.446;2022-08-20T00:36:05;17.00;99.90
20598;DHT22;10457;48.770;11.446;2022-08-20T00:41:29;17.00;99.90
20598;DHT22;10457;48.770;11.446;2022-08-20T00:46:52;17.10;99.90
20598;DHT22;10457;48.770;11.446;2022-08-20T00:52:17;17.10;99.90
20598;DHT22;10457;48.770;11.446;2022-08-20T00:57:43;17.10;99.90
20598;DHT22;10457;48.770;11.446;2022-08-20T01:03:09;17.10;99.90
20598;DHT22;10457;48.770;11.446;2022-08-20T01:08:33;17.20;99.90
20598;DHT22;10457;48.770;11.446;2022-08-20T01:13:55;17.10;99.90
20598;DHT22;10457;48.770;11.446;2022-08-20T01:19:20;17.20;99.90
20598;DHT22;10457;48.770;11.446;2022-08-20T01:24:49;17.20;99.90
20598;DHT22;10457;48.770;11.446;2022-08-20T01:30:13;17.20;99.90
20598;DHT22;10457;48.770;11.446;2022-08-20T01:35:36;17.20;99.90
20598;DHT22;10457;48.770;11.446;2022-08-20T01:47:13;17.30;99.90
20598;DHT22;10457;48.770;11.446;2022-08-20T01:52:38;17.30;99.90
20598;DHT22;10457;48.770;11.446;2022-08-20T01:58:03;17.30;99.90
20598;DHT22;10457;48.770;11.446;2022-08-20T02:03:27;17.30;99.90
20598;DHT22;10457;48.770;11.446;2022-08-20T02:08:49;17.30;99.90
20598;DHT22;10457;48.770;11.446;2022-08-20T02:14:10;17.20;99.90
20598;DHT22;10457;48.770;11.446;2022-08-20T02:19:44;17.20;99.90
20598;DHT22;10457;48.770;11.446;2022-08-20T02:25:09;17.20;99.90
20598;DHT22;10457;48.770;11.446;2022-08-20T02:30:35;17.20;99.90
20598;DHT22;10457;48.770;11.446;2022-08-20T02:35:59;17.30;99.90
20598;DHT22;10457;48.770;11.446;2022-08-20T02:41:21;17.30;99.90
20598;DHT22;10457;48.770;11.446;2022-08-20T02:46:42;17.30;99.90
20598;DHT22;10457;48.770;11.446;2022-08-20T02:52:05;17.30;99.90
20598;DHT22;10457;48.770;11.446;2022-08-20T02:57:27;17.30;99.90
20598;DHT22;10457;48.770;11.446;2022-08-20T03:02:49;17.30;99.90
20598;DHT22;10457;48.770;11.446;2022-08-20T03:08:13;17.30;99.90
20598;DHT22;10457;48.770;11.446;2022-08-20T03:13:35;17.30;99.90
20598;DHT22;10457;48.770;11.446;2022-08-20T03:18:57;17.30;99.90
20598;DHT22;10457;48.770;11.446;2022-08-20T03:24:20;17.30;99.90
20598;DHT22;10457;48.770;11.446;2022-08-20T03:29:42;17.30;99.90
20598;DHT22;10457;48.770;11.446;2022-08-20T03:35:05;17.30;99.90
20598;DHT22;10457;48.770;11.446;2022-08-20T03:40:32;17.30;99.90
20598;DHT22;10457;48.770;11.446;2022-08-20T03:45:54;17.30;99.90
20598;DHT22;10457;48.770;11.446;2022-08-20T03:51:15;17.30;99.90
20598;DHT22;10457;48.770;11.446;2022-08-20T03:56:38;17.40;99.90
20598;DHT22;10457;48.770;11.446;2022-08-20T04:02:00;17.40;99.90
20598;DHT22;10457;48.770;11.446;2022-08-20T04:07:23;17.40;99.90
20598;DHT22;10457;48.770;11.446;2022-08-20T04:12:47;17.50;99.90
20598;DHT22;10457;48.770;11.446;2022-08-20T04:18:09;17.50;99.90
20598;DHT22;10457;48.770;11.446;2022-08-20T04:23:31;17.40;99.90
20598;DHT22;10457;48.770;11.446;2022-08-20T04:28:55;17.40;99.90
20598;DHT22;10457;48.770;11.446;2022-08-20T04:34:17;17.50;99.90
20598;DHT22;10457;48.770;11.446;2022-08-20T04:39:39;17.50;99.90
20598;DHT22;10457;48.770;11.446;2022-08-20T04:45:02;17.40;99.90
20598;DHT22;10457;48.770;11.446;2022-08-20T04:50:25;17.40;99.90
20598;DHT22;10457;48.770;11.446;2022-08-20T04:55:47;17.40;99.90
20598;DHT22;10457;48.770;11.446;2022-08-20T05:01:10;17.40;99.90
20598;DHT22;10457;48.770;11.446;2022-08-20T05:06:32;17.40;99.90
20598;DHT22;10457;48.770;11.446;2022-08-20T05:11:53;17.40;99.90
20598;DHT22;10457;48.770;11.446;2022-08-20T05:17:17;17.30;99.90
20598;DHT22;10457;48.770;11.446;2022-08-20T05:22:38;17.40;99.90
20598;DHT22;10457;48.770;11.446;2022-08-20T05:28:06;17.40;99.90
20598;DHT22;10457;48.770;11.446;2022-08-20T05:33:32;17.50;99.90
20598;DHT22;10457;48.770;11.446;2022-08-20T05:38:54;17.40;99.90
20598;DHT22;10457;48.770;11.446;2022-08-20T05:44:17;17.50;99.90
20598;DHT22;10457;48.770;11.446;2022-08-20T05:49:40;17.50;99.90
20598;DHT22;10457;48.770;11.446;2022-08-20T05:55:03;17.50;99.90
20598;DHT22;10457;48.770;11.446;2022-08-20T06:00:26;17.40;99.90
20598;DHT22;10457;48.770;11.446;2022-08-20T06:05:50;17.40;99.90
20598;DHT22;10457;48.770;11.446;2022-08-20T06:11:12;17.50;99.90
20598;DHT22;10457;48.770;11.446;2022-08-20T06:16:33;17.50;99.90
20598;DHT22;10457;48.770;11.446;2022-08-20T06:21:56;17.50;99.90
20598;DHT22;10457;48.770;11.446;2022-08-20T06:27:18;17.50;99.90
20598;DHT22;10457;48.770;11.446;2022-08-20T06:32:39;17.40;99.90
20598;DHT22;10457;48.770;11.446;2022-08-20T06:38:03;17.40;99.90
20598;DHT22;10457;48.770;11.446;2022-08-20T06:43:25;17.40;99.90
20598;DHT22;10457;48.770;11.446;2022-08-20T06:48:47;17.40;99.90
20598;DHT22;10457;48.770;11.446;2022-08-20T06:54:10;17.40;99.90
20598;DHT22;10457;48.770;11.446;2022-08-20T06:59:31;17.40;99.90
20598;DHT22;10457;48.770;11.446;2022-08-20T07:04:53;17.40;99.90
20598;DHT22;10457;48.770;11.446;2022-08-20T07:10:17;17.40;99.90
20598;DHT22;10457;48.770;11.446;2022-08-20T07:15:39;17.40;99.90
20598;DHT22;10457;48.770;11.446;2022-08-20T07:21:01;17.30;99.90
20598;DHT22;10457;48.770;11.446;2022-08-20T07:26:24;17.20;99.90
20598;DHT22;10457;48.770;11.446;2022-08-20T07:31:45;17.20;99.90
20598;DHT22;10457;48.770;11.446;2022-08-20T07:37:27;17.20;99.90
20598;DHT22;10457;48.770;11.446;2022-08-20T07:42:50;17.30;99.90
20598;DHT22;10457;48.770;11.446;2022-08-20T07:48:13;17.30;99.90
20598;DHT22;10457;48.770;11.446;2022-08-20T07:53:37;17.30;99.90
20598;DHT22;10457;48.770;11.446;2022-08-20T07:59:00;17.40;99.90
20598;DHT22;10457;48.770;11.446;2022-08-20T08:04:21;17.40;99.90
20598;DHT22;10457;48.770;11.446;2022-08-20T08:09:45;17.40;99.90
20598;DHT22;10457;48.770;11.446;2022-08-20T08:15:11;17.50;99.90
20598;DHT22;10457;48.770;11.446;2022-08-20T08:20:36;17.50;99.90
20598;DHT22;10457;48.770;11.446;2022-08-20T08:26:01;17.60;99.90
20598;DHT22;10457;48.770;11.446;2022-08-20T08:31:24;17.60;99.90
20598;DHT22;10457;48.770;11.446;2022-08-20T08:36:45;17.60;99.90
20598;DHT22;10457;48.770;11.446;2022-08-20T08:42:19;17.50;99.90
20598;DHT22;10457;48.770;11.446;2022-08-20T08:47:46;17.50;99.90
20598;DHT22;10457;48.770;11.446;2022-08-20T08:53:14;17.50;99.90
20598;DHT22;10457;48.770;11.446;2022-08-20T08:58:40;17.60;99.90
20598;DHT22;10457;48.770;11.446;2022-08-20T09:04:04;17.60;99.90
20598;DHT22;10457;48.770;11.446;2022-08-20T09:09:27;17.60;99.90
20598;DHT22;10457;48.770;11.446;2022-08-20T09:14:52;17.50;99.90
20598;DHT22;10457;48.770;11.446;2022-08-20T09:20:16;17.50;99.90
20598;DHT22;10457;48.770;11.446;2022-08-20T09:25:38;17.60;99.90
20598;DHT22;10457;48.770;11.446;2022-08-20T09:31:00;17.50;99.90
20598;DHT22;10457;48.770;11.446;2022-08-20T09:36:23;17.70;99.90
20598;DHT22;10457;48.770;11.446;2022-08-20T09:41:44;17.80;99.90
20598;DHT22;10457;48.770;11.446;2022-08-20T09:47:06;18.10;99.90
20598;DHT22;10457;48.770;11.446;2022-08-20T09:52:31;18.00;99.90
20598;DHT22;10457;48.770;11.446;2022-08-20T09:57:54;18.20;99.90
20598;DHT22;10457;48.770;11.446;2022-08-20T10:03:16;18.40;99.90
20598;DHT22;10457;48.770;11.446;2022-08-20T10:08:39;18.60;99.90
20598;DHT22;10457;48.770;11.446;2022-08-20T10:14:00;18.70;99.90
20598;DHT22;10457;48.770;11.446;2022-08-20T10:19:22;18.80;99.90
20598;DHT22;10457;48.770;11.446;2022-08-20T10:24:44;18.80;99.90
20598;DHT22;10457;48.770;11.446;2022-08-20T10:30:07;18.90;99.90
20598;DHT22;10457;48.770;11.446;2022-08-20T10:35:29;18.80;99.90
20598;DHT22;10457;48.770;11.446;2022-08-20T10:40:52;18.90;99.90
20598;DHT22;10457;48.770;11.446;2022-08-20T10:46:14;19.00;99.90
20598;DHT22;10457;48.770;11.446;2022-08-20T10:51:35;19.20;99.90
20598;DHT22;10457;48.770;11.446;2022-08-20T10:57:02;19.30;99.90
20598;DHT22;10457;48.770;11.446;2022-08-20T11:02:25;19.50;99.90
20598;DHT22;10457;48.770;11.446;2022-08-20T11:07:47;19.80;99.90
20598;DHT22;10457;48.770;11.446;2022-08-20T11:13:10;19.80;99.90
20598;DHT22;10457;48.770;11.446;2022-08-20T11:18:32;19.90;99.90
20598;DHT22;10457;48.770;11.446;2022-08-20T11:23:53;20.10;99.90
20598;DHT22;10457;48.770;11.446;2022-08-20T11:29:16;20.50;99.90
20598;DHT22;10457;48.770;11.446;2022-08-20T11:34:39;21.30;99.90
20598;DHT22;10457;48.770;11.446;2022-08-20T11:40:01;23.10;99.90
20598;DHT22;10457;48.770;11.446;2022-08-20T11:45:25;25.90;84.40
20598;DHT22;10457;48.770;11.446;2022-08-20T11:50:47;27.30;71.60
20598;DHT22;10457;48.770;11.446;2022-08-20T11:56:08;26.30;75.10
20598;DHT22;10457;48.770;11.446;2022-08-20T12:01:32;25.30;79.60
20598;DHT22;10457;48.770;11.446;2022-08-20T12:06:54;24.60;81.70
20598;DHT22;10457;48.770;11.446;2022-08-20T12:12:16;23.50;85.30
20598;DHT22;10457;48.770;11.446;2022-08-20T12:17:40;23.00;93.10
20598;DHT22;10457;48.770;11.446;2022-08-20T12:23:02;25.10;78.00
20598;DHT22;10457;48.770;11.446;2022-08-20T12:28:24;24.00;82.30
20598;DHT22;10457;48.770;11.446;2022-08-20T12:33:47;22.60;90.90
20598;DHT22;10457;48.770;11.446;2022-08-20T12:39:09;21.80;99.40
20598;DHT22;10457;48.770;11.446;2022-08-20T12:44:31;21.20;99.90
20598;DHT22;10457;48.770;11.446;2022-08-20T12:49:57;20.60;99.90
20598;DHT22;10457;48.770;11.446;2022-08-20T12:55:20;20.10;99.90
20598;DHT22;10457;48.770;11.446;2022-08-20T13:00:44;19.80;99.90
20598;DHT22;10457;48.770;11.446;2022-08-20T13:06:08;19.80;99.90
20598;DHT22;10457;48.770;11.446;2022-08-20T13:11:29;19.60;99.90
20598;DHT22;10457;48.770;11.446;2022-08-20T13:16:56;19.50;99.90
20598;DHT22;10457;48.770;11.446;2022-08-20T13:22:19;19.60;99.90
20598;DHT22;10457;48.770;11.446;2022-08-20T13:27:41;19.70;99.90
20598;DHT22;10457;48.770;11.446;2022-08-20T13:33:03;20.20;99.90
20598;DHT22;10457;48.770;11.446;2022-08-20T13:38:26;20.50;99.90
20598;DHT22;10457;48.770;11.446;2022-08-20T13:43:48;20.80;99.90
20598;DHT22;10457;48.770;11.446;2022-08-20T13:49:09;20.80;99.90
20598;DHT22;10457;48.770;11.446;2022-08-20T13:54:32;20.60;99.90
20598;DHT22;10457;48.770;11.446;2022-08-20T13:59:57;20.50;99.90
20598;DHT22;10457;48.770;11.446;2022-08-20T14:05:19;20.60;99.90
20598;DHT22;10457;48.770;11.446;2022-08-20T14:10:42;20.50;99.90
20598;DHT22;10457;48.770;11.446;2022-08-20T14:16:05;20.40;99.90
20598;DHT22;10457;48.770;11.446;2022-08-20T14:21:27;20.10;99.90
20598;DHT22;10457;48.770;11.446;2022-08-20T14:26:50;19.90;99.90
20598;DHT22;10457;48.770;11.446;2022-08-20T14:32:11;19.50;99.90
20598;DHT22;10457;48.770;11.446;2022-08-20T14:37:35;19.20;99.90
20598;DHT22;10457;48.770;11.446;2022-08-20T14:43:00;19.20;99.90
20598;DHT22;10457;48.770;11.446;2022-08-20T14:48:22;19.10;99.90
20598;DHT22;10457;48.770;11.446;2022-08-20T14:53:46;18.90;99.90
20598;DHT22;10457;48.770;11.446;2022-08-20T14:59:10;18.70;99.90
20598;DHT22;10457;48.770;11.446;2022-08-20T15:04:32;18.50;99.90
20598;DHT22;10457;48.770;11.446;2022-08-20T15:09:54;18.40;99.90
20598;DHT22;10457;48.770;11.446;2022-08-20T15:15:18;18.30;99.90
20598;DHT22;10457;48.770;11.446;2022-08-20T15:20:39;18.20;99.90
20598;DHT22;10457;48.770;11.446;2022-08-20T15:26:01;18.20;99.90
20598;DHT22;10457;48.770;11.446;2022-08-20T15:31:24;18.30;99.90
20598;DHT22;10457;48.770;11.446;2022-08-20T15:36:45;18.20;99.90
20598;DHT22;10457;48.770;11.446;2022-08-20T15:42:08;18.20;99.90
20598;DHT22;10457;48.770;11.446;2022-08-20T15:47:35;18.10;99.90
20598;DHT22;10457;48.770;11.446;2022-08-20T15:53:02;18.10;99.90
20598;DHT22;10457;48.770;11.446;2022-08-20T15:58:33;18.00;99.90
20598;DHT22;10457;48.770;11.446;2022-08-20T16:04:20;18.10;99.90
20598;DHT22;10457;48.770;11.446;2022-08-20T16:10:03;18.00;99.90
20598;DHT22;10457;48.770;11.446;2022-08-20T16:15:34;17.80;99.90
20598;DHT22;10457;48.770;11.446;2022-08-20T16:21:01;17.80;99.90
20598;DHT22;10457;48.770;11.446;2022-08-20T16:26:38;17.70;99.90
20598;DHT22;10457;48.770;11.446;2022-08-20T16:32:16;17.90;99.90
20598;DHT22;10457;48.770;11.446;2022-08-20T16:37:50;17.80;99.90
20598;DHT22;10457;48.770;11.446;2022-08-20T16:43:17;17.80;99.90
20598;DHT22;10457;48.770;11.446;2022-08-20T16:48:48;17.80;99.90
20598;DHT22;10457;48.770;11.446;2022-08-20T16:54:16;17.80;99.90
20598;DHT22;10457;48.770;11.446;2022-08-20T16:59:56;17.80;99.90
20598;DHT22;10457;48.770;11.446;2022-08-20T17:05:20;17.70;99.90
20598;DHT22;10457;48.770;11.446;2022-08-20T17:10:56;17.90;99.90
20598;DHT22;10457;48.770;11.446;2022-08-20T17:16:20;17.80;99.90
20598;DHT22;10457;48.770;11.446;2022-08-20T17:21:42;17.80;99.90
20598;DHT22;10457;48.770;11.446;2022-08-20T17:27:06;17.80;99.90
20598;DHT22;10457;48.770;11.446;2022-08-20T17:32:32;17.90;99.90
20598;DHT22;10457;48.770;11.446;2022-08-20T17:37:54;18.00;99.90
20598;DHT22;10457;48.770;11.446;2022-08-20T17:43:25;17.90;99.90
20598;DHT22;10457;48.770;11.446;2022-08-20T17:48:50;17.90;99.90
20598;DHT22;10457;48.770;11.446;2022-08-20T17:54:15;17.90;99.90
20598;DHT22;10457;48.770;11.446;2022-08-20T17:59:44;17.90;99.90
20598;DHT22;10457;48.770;11.446;2022-08-20T18:05:10;17.90;99.90
20598;DHT22;10457;48.770;11.446;2022-08-20T18:10:42;17.90;99.90
20598;DHT22;10457;48.770;11.446;2022-08-20T18:16:23;17.90;99.90
20598;DHT22;10457;48.770;11.446;2022-08-20T18:22:05;17.90;99.90
20598;DHT22;10457;48.770;11.446;2022-08-20T18:27:35;17.80;99.90
20598;DHT22;10457;48.770;11.446;2022-08-20T18:33:04;17.70;99.90
20598;DHT22;10457;48.770;11.446;2022-08-20T18:38:29;17.80;99.90
20598;DHT22;10457;48.770;11.446;2022-08-20T18:44:03;17.80;99.90
20598;DHT22;10457;48.770;11.446;2022-08-20T18:49:30;17.70;99.90
20598;DHT22;10457;48.770;11.446;2022-08-20T18:54:54;17.70;99.90
20598;DHT22;10457;48.770;11.446;2022-08-20T19:00:19;17.60;99.90
20598;DHT22;10457;48.770;11.446;2022-08-20T19:06:11;17.60;99.90
20598;DHT22;10457;48.770;11.446;2022-08-20T19:11:54;17.70;99.90
20598;DHT22;10457;48.770;11.446;2022-08-20T19:17:30;17.80;99.90
20598;DHT22;10457;48.770;11.446;2022-08-20T19:23:07;17.80;99.90
20598;DHT22;10457;48.770;11.446;2022-08-20T19:28:41;17.80;99.90
20598;DHT22;10457;48.770;11.446;2022-08-20T19:34:06;17.80;99.90
20598;DHT22;10457;48.770;11.446;2022-08-20T19:39:33;17.70;99.90
20598;DHT22;10457;48.770;11.446;2022-08-20T19:44:58;17.70;99.90
20598;DHT22;10457;48.770;11.446;2022-08-20T19:50:28;17.60;99.90
20598;DHT22;10457;48.770;11.446;2022-08-20T19:55:59;17.70;99.90
20598;DHT22;10457;48.770;11.446;2022-08-20T20:01:22;17.50;99.90
20598;DHT22;10457;48.770;11.446;2022-08-20T20:06:45;17.60;99.90
20598;DHT22;10457;48.770;11.446;2022-08-20T20:12:13;17.70;99.90
20598;DHT22;10457;48.770;11.446;2022-08-20T20:17:36;17.70;99.90
20598;DHT22;10457;48.770;11.446;2022-08-20T20:23:00;17.60;99.90
20598;DHT22;10457;48.770;11.446;2022-08-20T20:28:44;17.50;99.90
20598;DHT22;10457;48.770;11.446;2022-08-20T20:34:11;17.50;99.90
20598;DHT22;10457;48.770;11.446;2022-08-20T20:39:36;17.50;99.90
20598;DHT22;10457;48.770;11.446;2022-08-20T20:45:14;17.40;99.90
20598;DHT22;10457;48.770;11.446;2022-08-20T20:50:37;17.50;99.90
20598;DHT22;10457;48.770;11.446;2022-08-20T20:55:59;17.40;99.90
20598;DHT22;10457;48.770;11.446;2022-08-20T21:01:22;17.30;99.90
20598;DHT22;10457;48.770;11.446;2022-08-20T21:06:44;17.30;99.90
20598;DHT22;10457;48.770;11.446;2022-08-20T21:12:09;17.30;99.90
20598;DHT22;10457;48.770;11.446;2022-08-20T21:17:33;17.30;99.90
20598;DHT22;10457;48.770;11.446;2022-08-20T21:22:55;17.30;99.90
20598;DHT22;10457;48.770;11.446;2022-08-20T21:28:17;17.30;99.90
20598;DHT22;10457;48.770;11.446;2022-08-20T21:33:41;17.20;99.90
20598;DHT22;10457;48.770;11.446;2022-08-20T21:39:02;17.20;99.90
20598;DHT22;10457;48.770;11.446;2022-08-20T21:44:26;17.30;99.90
20598;DHT22;10457;48.770;11.446;2022-08-20T21:49:49;17.30;99.90
20598;DHT22;10457;48.770;11.446;2022-08-20T21:55:11;17.30;99.90
20598;DHT22;10457;48.770;11.446;2022-08-20T22:00:52;17.40;99.90
20598;DHT22;10457;48.770;11.446;2022-08-20T22:06:16;17.40;99.90
20598;DHT22;10457;48.770;11.446;2022-08-20T22:11:37;17.40;99.90
20598;DHT22;10457;48.770;11.446;2022-08-20T22:16:59;17.50;99.90
20598;DHT22;10457;48.770;11.446;2022-08-20T22:22:22;17.40;99.90
20598;DHT22;10457;48.770;11.446;2022-08-20T22:27:44;17.40;99.90
20598;DHT22;10457;48.770;11.446;2022-08-20T22:33:09;17.50;99.90
20598;DHT22;10457;48.770;11.446;2022-08-20T22:38:33;17.50;99.90
20598;DHT22;10457;48.770;11.446;2022-08-20T22:43:55;17.50;99.90
20598;DHT22;10457;48.770;11.446;2022-08-20T22:49:17;17.70;99.90
20598;DHT22;10457;48.770;11.446;2022-08-20T22:54:44;17.60;99.90
20598;DHT22;10457;48.770;11.446;2022-08-20T23:00:08;17.60;99.90
20598;DHT22;10457;48.770;11.446;2022-08-20T23:05:33;17.60;99.90
20598;DHT22;10457;48.770;11.446;2022-08-20T23:10:57;17.60;99.90
20598;DHT22;10457;48.770;11.446;2022-08-20T23:16:18;17.60;99.90
20598;DHT22;10457;48.770;11.446;2022-08-20T23:21:40;17.60;99.90
20598;DHT22;10457;48.770;11.446;2022-08-20T23:27:04;17.50;99.90
20598;DHT22;10457;48.770;11.446;2022-08-20T23:32:26;17.40;99.90
20598;DHT22;10457;48.770;11.446;2022-08-20T23:37:50;17.40;99.90
20598;DHT22;10457;48.770;11.446;2022-08-20T23:43:14;17.50;99.90
20598;DHT22;10457;48.770;11.446;2022-08-20T23:48:37;17.50;99.90
20598;DHT22;10457;48.770;11.446;2022-08-20T23:53:59;17.40;99.90
20598;DHT22;10457;48.770;11.446;2022-08-20T23:59:22;17.50;99.90
